Time;durP1;ratioP1;P1;durP2;ratioP2;P2;SDS_P1;SDS_P2;PMS_P1;PMS_P2;Temp;Humidity;BMP_temperature;BMP_pressure;BME280_temperature;BME280_humidity;BME280_pressure;Samples;Min_cycle;Max_cycle;Signal;HPM_P1;HPM_P2
2023/07/21 00:01:20;;;;;;;5.30;4.38;;;;;;;20.06;100.00;-18566.47;5077482;28;20036;-76
2023/07/21 00:03:45;;;;;;;7.35;5.22;;;;;;;20.06;100.00;-18566.59;5079458;28;20049;-75
2023/07/21 00:06:16;;;;;;;6.78;5.00;;;;;;;20.02;100.00;-18565.50;5064301;28;20052;-76
2023/07/21 00:08:43;;;;;;;6.53;4.60;;;;;;;20.04;100.00;-18566.03;5060819;28;20426;-76
2023/07/21 00:11:09;;;;;;;7.22;4.80;;;;;;;20.02;100.00;-18565.50;5074842;28;20040;-75
2023/07/21 00:13:35;;;;;;;6.07;4.95;;;;;;;20.08;100.00;-18566.88;5077147;28;20461;-77
2023/07/21 00:16:05;;;;;;;8.32;5.53;;;;;;;19.96;100.00;-18563.88;5078522;28;20147;-76
2023/07/21 00:18:32;;;;;;;13.40;9.35;;;;;;;19.84;100.00;-18560.75;5076478;28;20086;-76
2023/07/21 00:20:57;;;;;;;6.90;5.40;;;;;;;19.82;100.00;-18560.06;5080173;28;20612;-77
2023/07/21 00:23:24;;;;;;;6.93;4.97;;;;;;;19.93;100.00;-18562.91;5070812;28;20047;-76
2023/07/21 00:25:50;;;;;;;5.95;4.70;;;;;;;19.91;100.00;-18562.38;5081432;28;20040;-76
2023/07/21 00:28:20;;;;;;;6.22;4.80;;;;;;;19.85;100.00;-18560.88;5075962;28;20061;-76
2023/07/21 00:30:47;;;;;;;6.93;4.75;;;;;;;19.79;100.00;-18559.25;5074568;28;20044;-75
2023/07/21 00:33:14;;;;;;;8.35;5.05;;;;;;;19.80;100.00;-18559.66;5080424;28;20040;-75
2023/07/21 00:35:40;;;;;;;8.23;5.35;;;;;;;19.94;100.00;-18563.31;5065321;28;20054;-76
2023/07/21 00:38:06;;;;;;;6.13;4.80;;;;;;;19.90;100.00;-18562.09;5074563;28;20071;-75
2023/07/21 00:40:35;;;;;;;5.80;4.40;;;;;;;19.99;100.00;-18564.56;5077755;28;20123;-76
2023/07/21 00:43:00;;;;;;;8.23;5.35;;;;;;;19.73;100.00;-18557.59;5066787;28;20116;-76
2023/07/21 00:45:27;;;;;;;7.53;5.22;;;;;;;19.77;100.00;-18558.84;5078735;28;20032;-76
2023/07/21 00:47:54;;;;;;;8.20;5.80;;;;;;;19.61;100.00;-18554.59;5079932;28;20081;-77
2023/07/21 00:50:19;;;;;;;8.23;5.82;;;;;;;19.59;100.00;-18553.91;5074952;28;20051;-76
2023/07/21 00:52:45;;;;;;;8.60;5.63;;;;;;;19.63;100.00;-18554.88;5073497;28;20036;-76
2023/07/21 00:55:11;;;;;;;5.65;4.72;;;;;;;19.32;100.00;-18546.72;5076199;28;20044;-74
2023/07/21 00:57:37;;;;;;;7.28;5.28;;;;;;;19.30;100.00;-18546.16;5073454;28;20093;-76
2023/07/21 01:00:12;;;;;;;7.47;5.38;;;;;;;19.20;100.00;-18543.44;5076587;28;20040;-76
2023/07/21 01:02:38;;;;;;;6.57;5.05;;;;;;;19.31;100.00;-18546.44;5080934;28;20546;-76
2023/07/21 01:05:04;;;;;;;7.25;4.93;;;;;;;19.32;100.00;-18546.84;5076780;28;20060;-76
2023/07/21 01:07:30;;;;;;;5.90;4.97;;;;;;;19.24;100.00;-18544.66;5071097;28;20036;-75
2023/07/21 01:09:57;;;;;;;6.70;5.43;;;;;;;19.43;100.00;-18549.56;5060378;28;20036;-76
2023/07/21 01:12:23;;;;;;;7.10;5.30;;;;;;;19.45;100.00;-18550.25;5074106;28;20058;-77
2023/07/21 01:14:49;;;;;;;7.22;5.43;;;;;;;19.28;100.00;-18545.75;5080851;28;20074;-75
2023/07/21 01:17:15;;;;;;;6.82;4.97;;;;;;;19.24;100.00;-18544.53;5079724;28;20142;-76
2023/07/21 01:19:42;;;;;;;6.03;4.70;;;;;;;19.14;100.00;-18541.94;5082904;28;20052;-77
2023/07/21 01:22:25;;;;;;;7.88;6.03;;;;;;;19.37;100.00;-18548.19;5070704;28;20044;-76
2023/07/21 01:24:51;;;;;;;8.02;5.32;;;;;;;19.42;100.00;-18549.44;5049626;28;20117;-76
2023/07/21 01:27:22;;;;;;;10.18;5.38;;;;;;;19.58;100.00;-18553.78;5076079;28;20067;-76
2023/07/21 01:29:50;;;;;;;6.80;5.90;;;;;;;19.50;100.00;-18551.59;5077894;28;20034;-76
2023/07/21 01:32:18;;;;;;;8.70;6.10;;;;;;;19.49;100.00;-18551.34;5076273;28;20039;-76
2023/07/21 01:34:44;;;;;;;7.27;5.77;;;;;;;19.55;100.00;-18552.97;5061747;28;20408;-76
2023/07/21 01:37:11;;;;;;;7.95;6.70;;;;;;;19.34;100.00;-18547.38;5076376;28;20040;-76
2023/07/21 01:39:38;;;;;;;7.90;6.50;;;;;;;19.52;100.00;-18552.03;5071281;28;20036;-76
2023/07/21 01:42:05;;;;;;;11.63;6.90;;;;;;;19.44;100.00;-18549.84;5073291;28;20128;-76
2023/07/21 01:44:31;;;;;;;8.40;7.13;;;;;;;19.42;100.00;-18549.44;5076816;28;20492;-76
2023/07/21 01:46:56;;;;;;;8.00;7.00;;;;;;;19.45;100.00;-18550.25;5077396;28;20050;-76
2023/07/21 01:49:21;;;;;;;8.02;6.18;;;;;;;19.34;100.00;-18547.25;5074889;28;20044;-76
2023/07/21 01:51:48;;;;;;;8.13;6.72;;;;;;;19.32;100.00;-18546.84;5079619;28;20068;-76
2023/07/21 01:54:22;;;;;;;7.80;6.22;;;;;;;19.31;100.00;-18546.56;5071849;28;20048;-76
2023/07/21 01:56:54;;;;;;;10.40;7.25;;;;;;;19.27;100.00;-18545.47;5075852;28;20037;-76
2023/07/21 01:59:22;;;;;;;8.45;6.93;;;;;;;19.32;100.00;-18546.72;5077647;28;20044;-75
2023/07/21 02:01:48;;;;;;;8.55;6.82;;;;;;;19.14;100.00;-18541.94;5076519;28;20039;-75
2023/07/21 02:04:14;;;;;;;9.50;6.95;;;;;;;19.11;100.00;-18541.25;5076001;28;20048;-75
2023/07/21 02:06:40;;;;;;;8.60;6.90;;;;;;;19.03;100.00;-18538.94;5075401;28;20048;-76
2023/07/21 02:09:05;;;;;;;8.77;6.43;;;;;;;19.08;100.00;-18540.44;5074056;28;20197;-76
2023/07/21 02:11:31;;;;;;;8.18;6.90;;;;;;;18.97;100.00;-18537.31;5061004;28;20047;-76
2023/07/21 02:13:58;;;;;;;8.32;6.57;;;;;;;18.99;100.00;-18538.00;5076805;28;20051;-74
2023/07/21 02:16:23;;;;;;;8.27;6.80;;;;;;;18.93;100.00;-18536.34;5076571;28;20472;-76
2023/07/21 02:18:48;;;;;;;8.27;6.32;;;;;;;19.02;100.00;-18538.81;5061748;28;20762;-75
2023/07/21 02:21:14;;;;;;;8.88;6.43;;;;;;;18.92;100.00;-18536.06;5072948;28;20037;-76
2023/07/21 02:23:39;;;;;;;9.25;7.15;;;;;;;18.76;100.00;-18531.84;5076512;28;20068;-76
2023/07/21 02:26:04;;;;;;;9.30;7.28;;;;;;;18.85;100.00;-18534.16;5077789;28;20503;-76
2023/07/21 02:28:30;;;;;;;8.02;6.68;;;;;;;18.96;100.00;-18537.03;5075280;28;20530;-76
2023/07/21 02:31:03;;;;;;;8.70;7.32;;;;;;;18.88;100.00;-18535.00;5074843;28;20123;-76
2023/07/21 02:33:32;;;;;;;9.15;7.53;;;;;;;18.80;100.00;-18532.94;5075939;28;20056;-76
2023/07/21 02:35:59;;;;;;;8.05;7.25;;;;;;;18.70;100.00;-18530.34;5078849;28;20667;-76
2023/07/21 02:38:25;;;;;;;8.40;7.50;;;;;;;18.60;100.00;-18527.47;5075925;28;20036;-75
2023/07/21 02:40:51;;;;;;;9.82;8.35;;;;;;;18.65;100.00;-18528.97;5073881;28;20035;-77
2023/07/21 02:43:17;;;;;;;9.85;8.80;;;;;;;18.63;100.00;-18528.44;5075612;28;20036;-76
2023/07/21 02:45:53;;;;;;;9.23;7.95;;;;;;;18.61;100.00;-18527.88;5084501;28;20800;-76
2023/07/21 02:48:20;;;;;;;10.70;8.05;;;;;;;18.56;100.00;-18526.53;5074166;28;20033;-76
2023/07/21 02:50:50;;;;;;;9.07;8.15;;;;;;;18.58;100.00;-18526.94;5073336;28;20062;-75
2023/07/21 02:53:17;;;;;;;11.85;9.05;;;;;;;18.57;100.00;-18526.81;5071210;28;20047;-76
2023/07/21 02:55:44;;;;;;;9.90;8.50;;;;;;;18.60;100.00;-18527.47;5083870;28;20043;-76
2023/07/21 02:58:11;;;;;;;10.05;8.18;;;;;;;18.54;100.00;-18525.97;5079445;28;20159;-76
2023/07/21 03:00:37;;;;;;;10.80;8.52;;;;;;;18.40;100.00;-18522.16;5074852;28;20168;-76
2023/07/21 03:03:03;;;;;;;11.23;8.95;;;;;;;18.48;100.00;-18524.34;5076535;28;20597;-76
2023/07/21 03:05:29;;;;;;;9.23;7.80;;;;;;;18.32;100.00;-18519.97;5076355;28;20081;-76
2023/07/21 03:07:56;;;;;;;11.43;8.18;;;;;;;18.26;100.00;-18518.63;5081875;28;20182;-77
2023/07/21 03:10:21;;;;;;;9.73;7.88;;;;;;;18.23;100.00;-18517.81;5070291;28;20035;-76
2023/07/21 03:12:47;;;;;;;12.18;9.00;;;;;;;18.36;100.00;-18521.22;5077112;28;20115;-76
2023/07/21 03:15:12;;;;;;;10.07;8.50;;;;;;;18.23;100.00;-18517.81;5079951;28;20085;-76
2023/07/21 03:17:38;;;;;;;12.43;8.57;;;;;;;18.12;100.00;-18514.81;5071164;28;20048;-75
2023/07/21 03:20:12;;;;;;;10.15;8.52;;;;;;;18.06;100.00;-18513.03;5063659;28;20040;-76
2023/07/21 03:22:42;;;;;;;12.55;9.45;;;;;;;18.04;100.00;-18512.63;5083638;28;20044;-77
2023/07/21 03:25:09;;;;;;;9.77;8.57;;;;;;;18.00;100.00;-18511.53;5086415;28;20685;-75
2023/07/21 03:27:35;;;;;;;12.15;9.15;;;;;;;17.97;100.00;-18510.84;5071991;28;20066;-75
2023/07/21 03:30:01;;;;;;;9.57;8.52;;;;;;;17.98;100.00;-18510.97;5068295;28;20036;-76
2023/07/21 03:32:27;;;;;;;10.45;9.35;;;;;;;17.89;100.00;-18508.66;5078691;28;21010;-76
2023/07/21 03:34:54;;;;;;;11.10;9.02;;;;;;;17.85;100.00;-18507.44;5082100;28;20063;-75
2023/07/21 03:37:25;;;;;;;10.07;8.38;;;;;;;17.96;100.00;-18510.56;5082588;28;20032;-77
2023/07/21 03:39:54;;;;;;;10.70;9.00;;;;;;;17.88;100.00;-18508.38;5084408;28;20580;-74
2023/07/21 03:42:19;;;;;;;11.07;9.17;;;;;;;17.85;100.00;-18507.44;5085204;28;20043;-76
2023/07/21 03:44:48;;;;;;;12.73;9.77;;;;;;;17.82;100.00;-18506.75;5085948;28;20039;-76
2023/07/21 03:47:17;;;;;;;;;;;;;;;17.76;100.00;-18505.25;5086799;28;20040;-75
2023/07/21 03:49:43;;;;;;;;;;;;;;;17.74;100.00;-18504.69;5084557;28;20077;-76
2023/07/21 03:52:08;;;;;;;;;;;;;;;17.73;100.00;-18504.28;5085718;28;20634;-76
2023/07/21 03:54:33;;;;;;;;;;;;;;;17.64;100.00;-18501.97;5086840;28;19919;-76
2023/07/21 03:56:58;;;;;;;;;;;;;;;17.72;100.00;-18504.16;5072380;28;19928;-76
2023/07/21 03:59:24;;;;;;;;;;;;;;;17.84;100.00;-18507.16;5081924;28;19995;-75
2023/07/21 04:01:49;;;;;;;;;;;;;;;17.90;100.00;-18508.94;5085313;28;20019;-75
2023/07/21 04:04:15;;;;;;;;;;;;;;;17.84;100.00;-18507.16;5074209;28;19952;-75
2023/07/21 04:06:42;;;;;;;;;;;;;;;17.68;100.00;-18503.06;5085554;28;20034;-75
2023/07/21 04:09:08;;;;;;;;;;;;;;;17.60;100.00;-18501.00;5086337;28;19939;-76
2023/07/21 04:11:33;;;;;;;;;;;;;;;17.49;100.00;-18497.88;5085617;28;20383;-75
2023/07/21 04:13:59;;;;;;;;;;;;;;;17.43;100.00;-18496.25;5082504;28;19943;-76
2023/07/21 04:16:24;;;;;;;;;;;;;;;17.40;100.00;-18495.41;5080668;28;19920;-75
2023/07/21 04:18:50;;;;;;;;;;;;;;;17.59;100.00;-18500.59;5084599;28;20299;-75
2023/07/21 04:21:15;;;;;;;;;;;;;;;17.77;100.00;-18505.53;5078461;28;20841;-75
2023/07/21 04:23:40;;;;;;;;;;;;;;;17.52;100.00;-18498.69;5085228;28;19935;-76
2023/07/21 04:26:06;;;;;;;;;;;;;;;17.42;100.00;-18496.09;5077146;28;19916;-76
2023/07/21 04:28:32;;;;;;;;;;;;;;;17.35;100.00;-18494.19;5078010;28;20014;-76
2023/07/21 04:30:57;;;;;;;;;;;;;;;17.68;100.00;-18503.06;5080653;28;20366;-75
2023/07/21 04:33:22;;;;;;;;;;;;;;;17.83;100.00;-18506.88;5084856;28;19938;-75
2023/07/21 04:35:48;;;;;;;;;;;;;;;17.91;100.00;-18509.22;5079296;28;19920;-76
2023/07/21 04:38:14;;;;;;;;;;;;;;;17.90;100.00;-18508.94;5083172;28;19912;-76
2023/07/21 04:40:41;;;;;;;;;;;;;;;17.91;100.00;-18509.22;5080820;28;19916;-76
2023/07/21 04:43:06;;;;;;;;;;;;;;;17.83;100.00;-18506.88;5062686;28;19917;-76
2023/07/21 04:45:32;;;;;;;;;;;;;;;17.68;100.00;-18503.06;5075323;28;19923;-75
2023/07/21 04:47:57;;;;;;;;;;;;;;;17.63;100.00;-18501.69;5079245;28;19991;-76
2023/07/21 04:50:23;;;;;;;;;;;;;;;17.77;100.00;-18505.38;5076048;28;20008;-76
2023/07/21 04:52:48;;;;;;;;;;;;;;;17.75;100.00;-18504.97;5077660;28;19919;-76
2023/07/21 04:55:14;;;;;;;;;;;;;;;17.77;100.00;-18505.53;5075979;28;19928;-75
2023/07/21 04:57:40;;;;;;;;;;;;;;;17.75;100.00;-18504.97;5078033;28;19919;-75
2023/07/21 05:00:11;;;;;;;;;;;;;;;17.83;100.00;-18506.88;5076283;28;19928;-75
2023/07/21 05:02:36;;;;;;;;;;;;;;;17.81;100.00;-18506.63;5079646;28;19943;-75
2023/07/21 05:05:05;;;;;;;;;;;;;;;17.74;100.00;-18504.69;5076172;28;20379;-76
2023/07/21 05:07:33;;;;;;;;;;;;;;;17.77;100.00;-18505.53;5049482;28;20501;-74
2023/07/21 05:09:58;;;;;;;;;;;;;;;17.81;100.00;-18506.47;5074483;28;19966;-77
2023/07/21 05:12:27;;;;;;;;;;;;;;;17.92;100.00;-18509.47;5075580;28;19963;-76
2023/07/21 05:14:53;;;;;;;;;;;;;;;18.07;100.00;-18513.44;5079181;28;20444;-75
2023/07/21 05:17:19;;;;;;;;;;;;;;;17.95;100.00;-18510.31;5070927;28;19920;-79
2023/07/21 05:19:44;;;;;;;;;;;;;;;18.03;100.00;-18512.34;5063752;28;20254;-73
2023/07/21 05:22:10;;;;;;;;;;;;;;;18.09;100.00;-18513.97;5047498;28;19971;-74
2023/07/21 05:24:38;;;;;;;;;;;;;;;18.30;100.00;-18519.44;5023566;28;19967;-76
2023/07/21 05:27:03;;;;;;;;;;;;;;;18.44;100.00;-18523.41;5020927;28;19948;-74
2023/07/21 05:29:28;;;;;;;;;;;;;;;18.40;100.00;-18522.31;5009270;28;19921;-76
2023/07/21 05:31:54;;;;;;;;;;;;;;;18.34;100.00;-18520.66;5015733;28;20002;-76
2023/07/21 05:34:21;;;;;;;;;;;;;;;18.51;100.00;-18525.03;5022018;28;19917;-76
2023/07/21 05:36:46;;;;;;;;;;;;;;;18.56;100.00;-18526.53;5024547;28;19932;-76
2023/07/21 05:39:11;;;;;;;;;;;;;;;18.56;100.00;-18526.38;5022903;28;19921;-76
2023/07/21 05:41:36;;;;;;;;;;;;;;;18.85;100.00;-18534.16;5013572;28;20382;-76
2023/07/21 05:44:02;;;;;;;;;;;;;;;18.99;100.00;-18537.84;5023629;28;19923;-76
2023/07/21 05:46:27;;;;;;;;;;;;;;;19.16;100.00;-18542.47;5017846;28;20284;-76
2023/07/21 05:48:52;;;;;;;;;;;;;;;19.17;100.00;-18542.88;5068350;28;19916;-76
2023/07/21 05:51:17;;;;;;;;;;;;;;;19.25;100.00;-18544.78;5080351;28;19955;-75
2023/07/21 05:53:43;;;;;;;;;;;;;;;19.50;100.00;-18551.47;5078821;28;19925;-77
2023/07/21 05:56:08;;;;;;;;;;;;;;;19.82;100.00;-18560.19;5082486;28;19932;-77
2023/07/21 05:58:37;;;;;;;;;;;;;;;19.74;100.00;-18557.88;5075584;28;20318;-76
2023/07/21 06:01:02;;;;;;;;;;;;;;;19.81;100.00;-18559.91;5076410;28;20023;-76
2023/07/21 06:03:28;;;;;;;;;;;;;;;19.91;100.00;-18562.50;5079727;28;21088;-77
2023/07/21 06:05:53;;;;;;;;;;;;;;;20.18;100.00;-18569.59;5077251;28;20179;-77
2023/07/21 06:08:18;;;;;;;;;;;;;;;20.11;100.00;-18567.81;5062839;28;19941;-77
2023/07/21 06:10:44;;;;;;;;;;;;;;;20.12;100.00;-18567.97;5080701;28;19983;-77
2023/07/21 06:13:10;;;;;;;;;;;;;;;20.23;100.00;-18570.94;5075876;28;20105;-77
2023/07/21 06:15:36;;;;;;;;;;;;;;;20.24;100.00;-18571.22;5079111;28;19924;-76
2023/07/21 06:18:02;;;;;;;;;;;;;;;20.51;100.00;-18578.44;5081745;28;20329;-77
2023/07/21 06:20:28;;;;;;;;;;;;;;;20.84;100.00;-18587.16;5074460;28;19924;-76
2023/07/21 06:22:53;;;;;;;;;;;;;;;20.63;100.00;-18581.56;5077847;28;19923;-77
2023/07/21 06:25:18;;;;;;;;;;;;;;;20.67;100.00;-18582.66;5074925;28;20376;-77
2023/07/21 06:27:46;;;;;;;;;;;;;;;20.58;100.00;-18580.22;5040993;28;20397;-77
2023/07/21 06:30:13;;;;;;;;;;;;;;;20.63;100.00;-18581.56;5028627;28;20427;-77
2023/07/21 06:32:40;;;;;;;;;;;;;;;20.75;100.00;-18584.69;5028742;28;19917;-77
2023/07/21 06:35:06;;;;;;;;;;;;;;;20.79;100.00;-18585.78;5015465;28;19928;-77
2023/07/21 06:37:31;;;;;;;;;;;;;;;20.91;99.66;-18589.19;5032551;28;19913;-77
2023/07/21 06:39:57;;;;;;;;;;;;;;;20.96;100.00;-18590.53;5028787;28;19913;-77
2023/07/21 06:42:22;;;;;;;;;;;;;;;21.00;98.42;-18591.50;5031441;28;19925;-77
2023/07/21 06:44:48;;;;;;;;;;;;;;;21.17;98.44;-18595.97;5031256;28;19940;-77
2023/07/21 06:47:14;;;;;;;;;;;;;;;21.27;97.39;-18598.69;5020863;28;19924;-76
2023/07/21 06:49:39;;;;;;;;;;;;;;;21.30;97.90;-18599.38;5031933;28;19953;-76
2023/07/21 06:52:05;;;;;;;;;;;;;;;21.34;95.93;-18600.47;5037404;28;19916;-78
2023/07/21 06:54:31;;;;;;;;;;;;;;;21.38;97.24;-18601.56;5076939;28;19965;-76
2023/07/21 06:56:58;;;;;;;;;;;;;;;21.45;95.38;-18603.31;5077054;28;19991;-74
2023/07/21 06:59:23;;;;;;;;;;;;;;;21.42;96.11;-18602.66;5072819;28;20559;-77
2023/07/21 07:01:48;;;;;;;;;;;;;;;21.56;93.34;-18606.31;5081866;28;19927;-78
2023/07/21 07:04:13;;;;;;;;;;;;;;;21.49;93.21;-18604.56;5064216;28;19982;-77
2023/07/21 07:06:39;;;;;;;;;;;;;;;21.45;93.69;-18603.31;5062087;28;19920;-77
2023/07/21 07:09:04;;;;;;;;;;;;;;;21.47;93.10;-18603.88;5081747;28;19920;-77
2023/07/21 07:11:29;;;;;;;;;;;;;;;21.43;93.27;-18602.91;5081690;28;19912;-77
2023/07/21 07:13:54;;;;;;;;;;;;;;;21.50;93.09;-18604.69;5080762;28;19924;-77
2023/07/21 07:16:19;;;;;;;;;;;;;;;21.53;92.53;-18605.63;5080293;28;20383;-76
2023/07/21 07:18:45;;;;;;;;;;;;;;;21.45;96.31;-18603.47;5081609;28;19942;-78
2023/07/21 07:21:10;;;;;;;;;;;;;;;21.61;94.99;-18607.69;5086717;28;20347;-77
2023/07/21 07:23:35;;;;;;;;;;;;;;;21.82;93.10;-18613.38;5079526;28;20021;-76
2023/07/21 07:26:01;;;;;;;;;;;;;;;21.79;96.38;-18612.56;5086098;28;19919;-77
2023/07/21 07:28:27;;;;;;;;;;;;;;;21.63;98.10;-18608.34;5080899;28;19920;-76
2023/07/21 07:30:52;;;;;;;;;;;;;;;21.87;97.77;-18614.59;5077960;28;20053;-76
2023/07/21 07:33:17;;;;;;;;;;;;;;;21.72;96.77;-18610.66;5081084;28;20037;-75
2023/07/21 07:35:52;;;;;;;;;;;;;;;21.74;96.43;-18611.22;5079873;28;19916;-76
2023/07/21 07:38:18;;;;;;;;;;;;;;;21.85;95.62;-18614.19;5082963;28;20605;-78
2023/07/21 07:40:44;;;;;;;;;;;;;;;22.19;91.67;-18623.16;5080348;28;20047;-78
2023/07/21 07:43:09;;;;;;;;;;;;;;;22.17;92.74;-18622.50;5073395;28;19952;-76
2023/07/21 07:45:35;;;;;;;;;;;;;;;22.13;87.25;-18621.41;5048685;28;19939;-75
2023/07/21 07:48:01;;;;;;;;;;;;;;;21.99;86.76;-18617.72;5044091;28;19970;-76
2023/07/21 07:50:27;;;;;;;;;;;;;;;22.14;84.19;-18621.81;5026209;28;19917;-74
2023/07/21 07:52:52;;;;;;;;;;;;;;;22.04;82.50;-18619.22;5044126;28;19917;-76
2023/07/21 07:55:18;;;;;;;;;;;;;;;22.24;83.19;-18624.38;5042037;28;19928;-75
2023/07/21 07:57:43;;;;;;;;;;;;;;;22.14;83.95;-18621.81;5041412;28;19940;-76
2023/07/21 08:00:09;;;;;;;;;;;;;;;22.14;83.92;-18621.81;5043269;28;19913;-76
2023/07/21 08:02:35;;;;;;;;;;;;;;;22.33;85.78;-18626.69;5040011;28;19917;-74
2023/07/21 08:05:00;;;;;;;;;;;;;;;22.36;81.33;-18627.53;5040633;28;20380;-76
2023/07/21 08:07:25;;;;;;;;;;;;;;;22.59;74.93;-18633.75;5045245;28;19975;-76
2023/07/21 08:09:50;;;;;;;;;;;;;;;22.63;76.72;-18634.84;5048132;28;20042;-77
2023/07/21 08:12:16;;;;;;;;;;;;;;;22.58;72.59;-18633.50;5046789;28;19924;-76
2023/07/21 08:14:41;;;;;;;;;;;;;;;22.81;73.55;-18639.47;5049125;28;20650;-76
2023/07/21 08:17:06;;;;;;;;;;;;;;;23.07;74.40;-18646.38;5040754;28;20288;-76
2023/07/21 08:19:32;;;;;;;;;;;;;;;23.05;71.97;-18645.97;5081972;28;19962;-76
2023/07/21 08:22:00;;;;;;;;;;;;;;;23.20;70.63;-18650.06;5080779;28;19934;-76
2023/07/21 08:24:26;;;;;;;;;;;;;;;23.25;69.98;-18651.13;5081501;28;20398;-76
2023/07/21 08:26:51;;;;;;;;;;;;;;;23.34;70.39;-18653.72;5084287;28;19916;-77
2023/07/21 08:29:16;;;;;;;;;;;;;;;23.17;70.36;-18649.25;5090441;28;19945;-77
2023/07/21 08:31:42;;;;;;;;;;;;;;;23.22;71.87;-18650.47;5079510;28;19927;-74
2023/07/21 08:34:07;;;;;;;;;;;;;;;23.28;70.06;-18652.09;5085009;28;19923;-77
2023/07/21 08:36:32;;;;;;;;;;;;;;;23.34;71.10;-18653.72;5086752;28;19935;-75
2023/07/21 08:38:57;;;;;;;;;;;;;;;23.38;68.84;-18654.78;5081770;28;19920;-76
2023/07/21 08:41:23;;;;;;;;;;;;;;;23.41;71.36;-18655.59;5078632;28;20381;-76
2023/07/21 08:43:48;;;;;;;;;;;;;;;23.47;68.21;-18657.09;5079055;28;20114;-76
2023/07/21 08:46:15;;;;;;;;;;;;;;;23.25;67.29;-18651.28;5079257;28;19928;-76
2023/07/21 08:48:40;;;;;;;;;;;;;;;23.19;65.23;-18649.66;5083566;28;20023;-76
2023/07/21 08:51:06;;;;;;;;;;;;;;;23.11;63.95;-18647.47;5078319;28;20358;-76
2023/07/21 08:53:32;;;;;;;;;;;;;;;23.39;61.42;-18654.94;5078546;28;20423;-77
2023/07/21 08:55:58;;;;;;;;;;;;;;;23.61;63.87;-18660.91;5078030;28;19963;-77
2023/07/21 08:58:24;;;;;;;;;;;;;;;23.60;63.51;-18660.50;5069265;28;19920;-76
2023/07/21 09:00:50;;;;;;;;;;;;;;;23.61;64.64;-18660.91;5078578;28;19931;-74
2023/07/21 09:03:22;;;;;;;;;;;;;;;23.61;65.31;-18660.91;5077520;28;19935;-77
2023/07/21 09:05:48;;;;;;;;;;;;;;;23.51;59.73;-18658.06;5058023;28;19924;-77
2023/07/21 09:08:24;;;;;;;;;;;;;;;23.45;62.17;-18656.56;5069386;28;20308;-76
2023/07/21 09:10:50;;;;;;;;;;;;;;;23.26;59.88;-18651.41;5052667;28;19916;-77
2023/07/21 09:13:16;;;;;;;;;;;;;;;23.41;62.03;-18655.59;5073329;28;19954;-77
2023/07/21 09:15:49;;;;;;;;;;;;;;;23.71;60.94;-18663.34;5082121;28;20035;-77
2023/07/21 09:18:14;;;;;;;;;;;;;;;23.67;59.92;-18662.25;5077154;28;19916;-76
2023/07/21 09:20:39;;;;;;;;;;;;;;;23.91;58.67;-18668.78;5070630;28;19974;-76
2023/07/21 09:23:05;;;;;;;;;;;;;;;23.93;57.72;-18669.19;5073275;28;19924;-76
2023/07/21 09:25:31;;;;;;;;;;;;;;;23.85;57.37;-18667.28;5073157;28;19962;-76
2023/07/21 09:27:57;;;;;;;;;;;;;;;23.92;56.24;-18668.91;5075272;28;19916;-77
2023/07/21 09:30:23;;;;;;;;;;;;;;;23.87;55.03;-18667.81;5076152;28;19916;-77
2023/07/21 09:32:51;;;;;;;;;;;;;;;23.69;55.89;-18662.81;5075737;28;20036;-77
2023/07/21 09:35:16;;;;;;;;;;;;;;;24.00;56.80;-18671.22;5059474;28;19946;-76
2023/07/21 09:37:42;;;;;;;;;;;;;;;24.03;56.09;-18672.03;5074138;28;19938;-78
2023/07/21 09:40:11;;;;;;;;;;;;;;;24.12;53.09;-18674.19;5064940;28;19939;-77
2023/07/21 09:42:37;;;;;;;;;;;;;;;24.11;52.71;-18674.06;5066447;28;19912;-76
2023/07/21 09:45:03;;;;;;;;;;;;;;;24.37;52.79;-18680.81;5065679;28;19916;-76
2023/07/21 09:47:28;;;;;;;;;;;;;;;24.12;53.13;-18674.19;5068776;28;19939;-76
2023/07/21 09:49:55;;;;;;;;;;;;;;;23.93;53.55;-18669.31;5073688;28;19928;-77
2023/07/21 09:52:21;;;;;;;;;;;;;;;23.87;53.68;-18667.81;5075949;28;19923;-76
2023/07/21 09:54:55;;;;;;;;;;;;;;;24.17;57.95;-18675.53;5051833;28;19913;-77
2023/07/21 09:57:24;;;;;;;;;;;;;;;24.38;50.87;-18681.22;5075425;28;19916;-78
2023/07/21 09:59:50;;;;;;;;;;;;;;;24.23;51.24;-18677.31;5079349;28;20053;-77
2023/07/21 10:02:16;;;;;;;;;;;;;;;24.17;53.89;-18675.53;5063535;28;19919;-77
2023/07/21 10:04:42;;;;;;;;;;;;;;;24.30;52.87;-18679.19;5075371;28;19920;-76
2023/07/21 10:07:08;;;;;;;;;;;;;;;24.03;50.63;-18672.03;5080261;28;20138;-76
2023/07/21 10:09:36;;;;;;;;;;;;;;;24.21;51.82;-18676.75;5075802;28;19920;-76
2023/07/21 10:12:12;;;;;;;;;;;;;;;24.39;50.48;-18681.50;5078265;28;19923;-77
2023/07/21 10:14:41;;;;;;;;;;;;;;;24.35;50.40;-18680.41;5079552;28;20021;-77
2023/07/21 10:17:07;;;;;;;;;;;;;;;24.29;47.16;-18678.94;5043485;28;20387;-76
2023/07/21 10:19:42;;;;;;;;;;;;;;;24.23;48.98;-18677.16;5061946;28;19947;-77
2023/07/21 10:22:22;;;;;;;;;;;;;;;24.40;49.95;-18681.78;5072578;28;20303;-77
2023/07/21 10:24:50;;;;;;;;;;;;;;;24.28;48.30;-18678.53;5075706;28;19965;-77
2023/07/21 10:27:20;;;;;;;;;;;;;;;24.27;48.28;-18678.25;5076833;28;19926;-76
2023/07/21 10:29:45;;;;;;;;;;;;;;;24.22;48.46;-18677.03;5075040;28;19916;-76
2023/07/21 10:32:11;;;;;;;;;;;;;;;24.46;47.23;-18683.41;5075177;28;19973;-76
2023/07/21 10:34:43;;;;;;;;;;;;;;;24.60;46.12;-18687.06;5081212;28;19920;-75
2023/07/21 10:37:08;;;;;;;;;;;;;;;24.82;43.89;-18692.88;5071910;28;19953;-76
2023/07/21 10:39:40;;;;;;;;;;;;;;;24.75;44.21;-18691.13;5079065;28;20012;-76
2023/07/21 10:42:06;;;;;;;;;;;;;;;24.57;43.23;-18686.13;5075381;28;19912;-77
2023/07/21 10:44:31;;;;;;;;;;;;;;;24.86;45.16;-18693.97;5070979;28;20372;-77
2023/07/21 10:46:57;;;;;;;;;;;;;;;24.91;44.03;-18695.31;5079921;28;19920;-77
2023/07/21 10:49:22;;;;;;;;;;;;;;;25.13;44.91;-18701.00;5073959;28;20013;-75
2023/07/21 10:51:48;;;;;;;;;;;;;;;25.14;45.21;-18701.28;5072592;28;19912;-76
2023/07/21 10:54:14;;;;;;;;;;;;;;;25.34;44.72;-18706.69;5076977;28;19920;-77
2023/07/21 10:56:45;;;;;;;;;;;;;;;25.34;43.76;-18706.56;5077601;28;20349;-75
2023/07/21 10:59:11;;;;;;;;;;;;;;;25.41;43.04;-18708.59;5059666;28;19916;-76
2023/07/21 11:01:45;;;;;;;;;;;;;;;25.16;43.56;-18701.97;5069130;28;19961;-76
2023/07/21 11:04:11;;;;;;;;;;;;;;;25.73;43.83;-18716.97;5076928;28;19920;-76
2023/07/21 11:06:40;;;;;;;;;;;;;;;25.36;42.74;-18707.09;5075440;28;19919;-76
2023/07/21 11:09:11;;;;;;;;;;;;;;;25.27;43.95;-18704.81;5075887;28;19927;-76
2023/07/21 11:11:41;;;;;;;;;;;;;;;25.21;44.17;-18703.19;5071226;28;19916;-76
2023/07/21 11:14:11;;;;;;;;;;;;;;;24.95;43.81;-18696.28;5075066;28;19924;-77
2023/07/21 11:16:41;;;;;;;;;;;;;;;25.11;45.03;-18700.59;5073557;28;19942;-76
2023/07/21 11:19:09;;;;;;;;;;;;;;;25.13;45.47;-18701.16;5072580;28;19913;-76
2023/07/21 11:21:34;;;;;;;;;;;;;;;25.21;44.87;-18703.19;5074067;28;20390;-76
2023/07/21 11:24:00;;;;;;;;;;;;;;;25.40;44.58;-18708.19;5076471;28;19920;-75
2023/07/21 11:26:25;;;;;;;;;;;;;;;25.52;44.27;-18711.31;5071561;28;19942;-76
2023/07/21 11:28:51;;;;;;;;;;;;;;;25.62;44.43;-18714.13;5079750;28;19928;-76
2023/07/21 11:31:18;;;;;;;;;;;;;;;25.81;42.65;-18719.00;5070884;28;19920;-75
2023/07/21 11:33:47;;;;;;;;;;;;;;;25.93;42.64;-18722.13;5078807;28;19942;-77
2023/07/21 11:36:16;;;;;;;;;;;;;;;26.01;43.36;-18724.28;5082226;28;19942;-77
2023/07/21 11:38:54;;;;;;;;;;;;;;;26.06;42.92;-18725.63;5065652;28;20306;-77
2023/07/21 11:41:53;;;;;;;;;;;;;;;26.08;41.07;-18726.19;5060847;28;20437;-76
2023/07/21 11:44:20;;;;;;;;;;;;;;;26.13;41.88;-18727.53;5005264;28;19986;-77
2023/07/21 11:46:57;;;;;;;;;;;;;;;26.10;42.44;-18726.72;5083125;28;19916;-77
2023/07/21 11:49:25;;;;;;;;;;;;;;;26.15;41.97;-18727.94;5064935;28;19935;-76
2023/07/21 11:51:51;;;;;;;;;;;;;;;26.06;42.25;-18725.63;5057284;28;19912;-76
2023/07/21 11:54:30;;;;;;;;;;;;;;;26.03;41.61;-18724.84;5063787;28;19951;-75
2023/07/21 11:56:56;;;;;;;;;;;;;;;26.39;41.49;-18734.28;5062854;28;19925;-77
2023/07/21 11:59:22;;;;;;;;;;;;;;;26.52;41.75;-18737.94;5076874;28;19951;-77
2023/07/21 12:01:47;;;;;;;;;;;;;;;26.42;41.14;-18735.09;5085062;28;20396;-77
2023/07/21 12:04:13;;;;;;;;;;;;;;;26.21;40.84;-18729.69;5078188;28;19920;-75
2023/07/21 12:06:38;;;;;;;;;;;;;;;26.34;41.28;-18733.22;5078249;28;20011;-77